createdAt,value
2018-10-19T00:02:00.198Z,86.14
2018-10-19T00:07:04.213Z,86.26
2018-10-19T00:12:08.265Z,85.27
2018-10-19T00:17:12.367Z,85.92
2018-10-19T00:22:16.370Z,86.51
2018-10-19T00:27:20.633Z,86.38
2018-10-19T00:32:24.623Z,87.04
2018-10-19T00:37:28.603Z,86.79
2018-10-19T00:42:32.592Z,86.63
2018-10-19T00:47:36.594Z,86.37
2018-10-19T00:52:40.558Z,86.25
2018-10-19T00:57:44.729Z,86.10
2018-10-19T01:02:48.707Z,86.40
2018-10-19T01:07:52.731Z,85.93
2018-10-19T01:12:58.485Z,85.94
2018-10-19T01:18:02.451Z,86.29
2018-10-19T01:23:06.549Z,86.38
2018-10-19T01:28:10.975Z,86.49
2018-10-19T01:33:15.048Z,86.18
2018-10-19T01:38:18.951Z,85.95
2018-10-19T01:43:22.941Z,86.67
2018-10-19T01:48:27.905Z,86.58
2018-10-19T01:53:31.874Z,86.40
2018-10-19T01:58:35.835Z,86.58
2018-10-19T02:03:40.902Z,86.61
2018-10-19T02:08:44.879Z,87.05
2018-10-19T02:13:48.858Z,86.61
2018-10-19T02:18:52.824Z,86.46
2018-10-19T02:23:56.834Z,86.40
2018-10-19T02:29:00.837Z,86.02
2018-10-19T02:34:05.002Z,86.21
2018-10-19T02:39:09.126Z,85.66
2018-10-19T02:44:13.050Z,86.29
2018-10-19T02:49:17.035Z,87.33
2018-10-19T02:54:21.030Z,86.90
2018-10-19T02:59:25.104Z,86.51
2018-10-19T03:04:29.099Z,86.45
2018-10-19T03:09:33.086Z,87.00
2018-10-19T03:14:37.171Z,87.14
2018-10-19T03:19:41.370Z,87.00
2018-10-19T03:24:45.503Z,87.32
2018-10-19T03:29:49.640Z,87.69
2018-10-19T03:34:53.774Z,87.67
2018-10-19T03:39:57.804Z,87.80
2018-10-19T03:45:02.001Z,87.46
2018-10-19T03:50:06.344Z,87.77
2018-10-19T03:55:10.552Z,87.75
2018-10-19T04:00:14.560Z,87.87
2018-10-19T04:05:18.633Z,87.62
2018-10-19T04:10:23.010Z,87.80
2018-10-19T04:15:27.070Z,87.50
2018-10-19T04:20:31.084Z,87.61
2018-10-19T04:25:35.612Z,87.57
2018-10-19T04:30:39.671Z,87.53
2018-10-19T04:35:43.681Z,87.45
2018-10-19T04:40:47.721Z,87.57
2018-10-19T04:45:51.815Z,87.56
2018-10-19T04:50:55.916Z,87.33
2018-10-19T04:56:00.177Z,87.13
2018-10-19T05:01:04.206Z,87.21
2018-10-19T05:06:08.322Z,88.14
2018-10-19T05:11:12.420Z,88.12
2018-10-19T05:16:16.420Z,87.94
2018-10-19T05:21:20.449Z,88.42
2018-10-19T05:26:24.670Z,88.34
2018-10-19T05:31:28.753Z,88.61
2018-10-19T05:36:32.845Z,88.57
2018-10-19T05:41:37.117Z,88.48
2018-10-19T05:46:41.131Z,88.89
2018-10-19T05:51:45.154Z,89.08
2018-10-19T05:56:49.539Z,88.99
2018-10-19T06:01:53.611Z,88.97
2018-10-19T06:06:57.622Z,89.07
2018-10-19T06:12:01.716Z,89.32
2018-10-19T06:17:06.575Z,90.12
2018-10-19T06:22:10.625Z,90.30
2018-10-19T06:27:14.756Z,90.36
2018-10-19T06:32:19.047Z,90.15
2018-10-19T06:37:23.055Z,90.93
2018-10-19T06:42:27.411Z,90.93
2018-10-19T06:47:31.429Z,90.81
2018-10-19T06:52:35.435Z,90.94
2018-10-19T06:57:39.449Z,90.74
2018-10-19T07:02:43.570Z,90.40
2018-10-19T07:07:47.620Z,89.45
2018-10-19T07:12:51.905Z,89.39
2018-10-19T07:17:55.910Z,89.17
2018-10-19T07:28:01.493Z,88.67
2018-10-19T07:33:03.922Z,88.29
2018-10-19T07:38:06.510Z,88.14
2018-10-19T07:43:08.783Z,87.49
2018-10-19T07:48:11.295Z,87.89
2018-10-19T07:53:13.494Z,87.58
2018-10-19T07:58:15.857Z,87.28
2018-10-19T08:03:18.240Z,87.40
2018-10-19T08:08:20.559Z,86.72
2018-10-19T08:13:23.105Z,86.94
2018-10-19T08:18:25.437Z,87.15
2018-10-19T08:23:27.788Z,87.00
2018-10-19T08:28:30.118Z,86.55
2018-10-19T08:33:32.606Z,85.41
2018-10-19T08:38:34.907Z,85.52
2018-10-19T08:43:37.235Z,85.60
2018-10-19T08:48:39.570Z,85.18
2018-10-19T08:53:41.924Z,84.93
2018-10-19T08:58:44.253Z,84.20
2018-10-19T09:03:46.655Z,83.67
2018-10-19T09:08:48.973Z,83.29
2018-10-19T09:13:51.394Z,83.09
2018-10-19T09:18:53.722Z,83.07
2018-10-19T09:23:56.047Z,82.13
2018-10-19T09:28:58.594Z,81.75
2018-10-19T09:34:00.982Z,81.15
2018-10-19T09:39:04.864Z,81.12
2018-10-19T09:44:07.228Z,81.62
2018-10-19T09:49:11.538Z,82.34
2018-10-19T09:54:13.841Z,81.43
2018-10-19T09:59:16.245Z,80.88
2018-10-19T10:04:18.665Z,80.84
2018-10-19T10:09:20.990Z,79.83
2018-10-19T10:14:23.311Z,79.83
2018-10-19T10:19:25.738Z,78.43
2018-10-19T10:24:28.085Z,78.78
2018-10-19T10:29:30.412Z,77.69
2018-10-19T10:34:32.863Z,76.52
2018-10-19T10:39:35.309Z,76.88
2018-10-19T10:44:37.727Z,76.35
2018-10-19T10:49:40.066Z,76.02
2018-10-19T10:54:42.390Z,76.11
2018-10-19T10:59:44.710Z,74.71
2018-10-19T11:04:47.109Z,74.38
2018-10-19T11:09:49.493Z,74.34
2018-10-19T11:14:51.826Z,73.74
2018-10-19T11:19:54.161Z,72.66
2018-10-19T11:24:56.533Z,73.41
2018-10-19T11:29:58.930Z,71.14
2018-10-19T11:35:01.370Z,72.18
2018-10-19T11:40:20.399Z,71.33
2018-10-19T11:45:23.711Z,71.90
2018-10-19T11:50:26.029Z,70.30
2018-10-19T11:55:28.374Z,71.39
2018-10-19T12:00:30.741Z,71.22
2018-10-19T12:05:33.152Z,68.64
2018-10-19T12:10:35.635Z,68.12
2018-10-19T12:15:37.932Z,68.69
2018-10-19T12:20:40.391Z,68.00
2018-10-19T12:25:42.757Z,68.34
2018-10-19T12:30:45.088Z,68.25
2018-10-19T12:35:47.542Z,67.68
2018-10-19T12:40:49.895Z,68.39
2018-10-19T12:46:38.155Z,68.16
2018-10-19T12:51:40.592Z,67.95
2018-10-19T12:56:42.947Z,68.74
2018-10-19T13:01:45.277Z,68.43
2018-10-19T13:06:47.645Z,68.53
2018-10-19T13:11:50.043Z,68.48
2018-10-19T13:16:52.362Z,68.87
2018-10-19T13:21:54.911Z,67.64
2018-10-19T13:26:57.331Z,68.37
2018-10-19T13:31:59.616Z,67.76
2018-10-19T13:37:01.997Z,68.70
2018-10-19T13:42:04.671Z,68.20
2018-10-19T13:47:07.057Z,67.57
2018-10-19T13:52:09.411Z,68.11
2018-10-19T13:57:11.762Z,67.49
2018-10-19T14:02:14.105Z,66.53
2018-10-19T14:07:16.769Z,66.95
2018-10-19T14:12:19.786Z,66.54
2018-10-19T14:17:23.252Z,67.00
2018-10-19T14:22:25.793Z,66.73
2018-10-19T14:27:28.148Z,67.00
2018-10-19T14:32:30.579Z,66.53
2018-10-19T14:37:33.048Z,67.27
2018-10-19T14:42:35.491Z,67.08
2018-10-19T14:47:38.609Z,67.81
2018-10-19T14:52:40.906Z,67.63
2018-10-19T14:57:43.236Z,67.38
2018-10-19T15:02:45.811Z,67.11
2018-10-19T15:07:49.093Z,66.88
2018-10-19T15:12:51.597Z,67.47
2018-10-19T15:17:53.947Z,68.44
2018-10-19T15:22:56.299Z,68.08
2018-10-19T15:27:58.928Z,67.78
2018-10-19T15:33:01.341Z,67.98
2018-10-19T15:38:03.751Z,67.80
2018-10-19T15:43:06.074Z,67.67
2018-10-19T15:48:08.474Z,67.40
2018-10-19T15:53:10.822Z,66.72
2018-10-19T15:58:13.337Z,66.98
2018-10-19T16:03:16.100Z,67.49
2018-10-19T16:08:18.538Z,67.31
2018-10-19T16:13:20.884Z,67.52
2018-10-19T16:18:23.234Z,67.52
2018-10-19T16:23:25.757Z,67.45
2018-10-19T16:28:28.169Z,67.95
2018-10-19T16:33:30.481Z,67.25
2018-10-19T16:38:32.857Z,67.23
2018-10-19T16:43:35.251Z,68.11
2018-10-19T16:48:37.702Z,67.94
2018-10-19T16:53:40.256Z,68.39
2018-10-19T16:58:42.665Z,68.61
2018-10-19T17:03:45.110Z,69.25
2018-10-19T17:08:47.509Z,69.18
2018-10-19T17:13:49.831Z,69.67
2018-10-19T17:18:52.306Z,70.21
2018-10-19T17:23:54.838Z,70.56
2018-10-19T17:28:57.203Z,71.23
2018-10-19T17:33:59.681Z,71.86
2018-10-19T17:39:02.111Z,72.56
2018-10-19T17:44:05.179Z,73.33
2018-10-19T17:49:07.777Z,73.95
2018-10-19T17:54:12.248Z,74.54
2018-10-19T17:59:14.926Z,75.25
2018-10-19T18:04:17.248Z,75.43
2018-10-19T18:09:19.869Z,75.38
2018-10-19T18:14:22.208Z,75.60
2018-10-19T18:19:24.547Z,75.69
2018-10-19T18:24:26.914Z,75.95
2018-10-19T18:29:29.259Z,75.85
2018-10-19T18:34:31.589Z,75.71
2018-10-19T18:39:34.088Z,76.22
2018-10-19T18:44:36.428Z,76.04
2018-10-19T18:49:39.606Z,76.71
2018-10-19T18:54:41.917Z,77.25
2018-10-19T18:59:44.308Z,77.06
2018-10-19T19:04:46.759Z,76.94
2018-10-19T19:09:54.872Z,77.08
2018-10-19T19:14:57.209Z,77.37
2018-10-19T19:20:05.219Z,77.41
2018-10-19T19:25:13.399Z,77.61
2018-10-19T19:30:16.257Z,78.57
2018-10-19T19:35:18.840Z,78.23
2018-10-19T19:40:21.904Z,79.02
2018-10-19T19:45:24.244Z,78.45
2018-10-19T19:50:26.614Z,78.12
2018-10-19T19:55:28.989Z,78.18
2018-10-19T20:00:32.462Z,78.50
2018-10-19T20:05:34.853Z,79.20
2018-10-19T20:10:37.633Z,78.78
2018-10-19T20:15:40.107Z,78.88
2018-10-19T20:20:42.440Z,79.19
2018-10-19T20:25:44.843Z,78.80
2018-10-19T20:30:47.247Z,79.35
2018-10-19T20:35:49.626Z,79.35
2018-10-19T20:40:52.320Z,79.45
2018-10-19T20:45:54.893Z,79.58
2018-10-19T20:50:57.329Z,79.18
2018-10-19T20:55:59.720Z,79.74
2018-10-19T21:01:02.231Z,79.87
2018-10-19T21:11:18.068Z,80.39
2018-10-19T21:16:20.617Z,80.37
2018-10-19T21:21:23.021Z,81.13
2018-10-19T21:26:25.492Z,81.46
2018-10-19T21:31:28.000Z,81.27
2018-10-19T21:36:30.349Z,80.87
2018-10-19T21:41:32.740Z,81.73
2018-10-19T21:46:35.126Z,81.45
2018-10-19T21:51:37.598Z,82.07
2018-10-19T21:56:39.903Z,82.81
2018-10-19T22:01:42.295Z,81.91
2018-10-19T22:06:44.616Z,82.29
2018-10-19T22:11:46.947Z,81.76
2018-10-19T22:16:49.295Z,81.66
2018-10-19T22:21:51.595Z,82.00
2018-10-19T22:26:54.045Z,82.23
2018-10-19T22:31:56.396Z,82.27
2018-10-19T22:36:58.779Z,82.15
2018-10-19T22:42:01.125Z,82.22
2018-10-19T22:47:03.562Z,81.93
2018-10-19T22:52:05.897Z,81.67
2018-10-19T22:57:08.214Z,81.60
2018-10-19T23:02:10.599Z,82.88
2018-10-19T23:07:12.963Z,82.47
2018-10-19T23:12:15.301Z,82.50
2018-10-19T23:17:17.766Z,82.62
2018-10-19T23:22:20.088Z,82.62
2018-10-19T23:27:22.449Z,83.35
2018-10-19T23:32:24.880Z,83.60
2018-10-19T23:37:27.249Z,84.00
2018-10-19T23:42:29.586Z,84.74
2018-10-19T23:47:31.951Z,84.48
2018-10-19T23:52:34.366Z,84.84
2018-10-19T23:57:36.687Z,84.24
